Time;durP1;ratioP1;P1;durP2;ratioP2;P2;SDS_P1;SDS_P2;PMS_P1;PMS_P2;Temp;Humidity;BMP_temperature;BMP_pressure;BME280_temperature;BME280_humidity;BME280_pressure;Samples;Min_cycle;Max_cycle;Signal;HPM_P1;HPM_P2
2023/05/01 00:02:12;;;;;;;4.05;1.67;;;;;;;6.78;65.25;100832.78;5065123;28;20045;-75
2023/05/01 00:04:38;;;;;;;0.40;0.40;;;;;;;6.76;65.02;100826.72;5047283;28;20120;-75
2023/05/01 00:07:03;;;;;;;0.40;0.40;;;;;;;6.79;65.35;100828.47;5063991;28;20476;-75
2023/05/01 00:09:29;;;;;;;0.50;0.50;;;;;;;6.75;65.38;100817.25;5065080;28;20040;-74
2023/05/01 00:11:54;;;;;;;0.50;0.50;;;;;;;6.73;65.76;100818.06;5064807;28;20024;-74
2023/05/01 00:14:20;;;;;;;0.40;0.40;;;;;;;6.65;66.15;100805.06;5064030;28;20491;-73
2023/05/01 00:16:45;;;;;;;0.40;0.40;;;;;;;6.59;66.24;100813.59;5064926;28;20029;-74
2023/05/01 00:19:11;;;;;;;0.57;0.57;;;;;;;6.49;66.36;100812.56;5064677;28;20021;-72
2023/05/01 00:21:37;;;;;;;0.50;0.50;;;;;;;6.27;66.52;100813.94;5064739;28;20025;-75
2023/05/01 00:24:02;;;;;;;0.40;0.40;;;;;;;6.05;64.90;100809.31;5065091;28;20021;-74
2023/05/01 00:26:30;;;;;;;0.40;0.40;;;;;;;5.88;64.31;100808.13;5064653;28;20063;-74
2023/05/01 00:28:56;;;;;;;0.40;0.40;;;;;;;5.63;63.65;100808.56;5046806;28;20021;-78
2023/05/01 00:31:23;;;;;;;0.50;0.50;;;;;;;5.41;64.49;100800.44;5064740;28;20474;-78
2023/05/01 00:33:48;;;;;;;0.40;0.40;;;;;;;5.26;64.53;100793.25;5064710;28;20021;-76
2023/05/01 00:36:14;;;;;;;0.40;0.40;;;;;;;5.19;65.40;100799.97;5064706;28;20033;-76
2023/05/01 00:38:39;;;;;;;0.50;0.50;;;;;;;5.08;65.74;100791.16;5062798;28;20033;-75
2023/05/01 00:41:05;;;;;;;0.40;0.40;;;;;;;5.04;65.37;100791.97;5063974;28;20036;-72
2023/05/01 00:43:31;;;;;;;0.40;0.40;;;;;;;4.93;65.64;100787.47;5064389;28;20089;-72
2023/05/01 00:45:56;;;;;;;0.40;0.40;;;;;;;4.93;66.23;100796.88;5063993;28;20028;-76
2023/05/01 00:48:22;;;;;;;0.50;0.50;;;;;;;4.87;66.05;100789.91;5063077;28;20055;-76
2023/05/01 00:50:48;;;;;;;0.50;0.50;;;;;;;4.92;65.86;100790.00;5062802;28;20098;-77
2023/05/01 00:53:14;;;;;;;0.40;0.40;;;;;;;4.79;66.00;100773.44;5045873;28;20029;-75
2023/05/01 00:55:41;;;;;;;0.40;0.40;;;;;;;4.83;66.06;100782.94;5062181;28;20082;-78
2023/05/01 00:58:09;;;;;;;0.40;0.40;;;;;;;4.87;66.27;100789.91;5063905;28;20075;-75
2023/05/01 01:00:34;;;;;;;0.50;0.50;;;;;;;4.83;66.65;100785.53;5045763;28;20013;-78
2023/05/01 01:02:59;;;;;;;0.50;0.50;;;;;;;4.77;67.38;100775.09;5064057;28;20052;-76
2023/05/01 01:05:28;;;;;;;0.40;0.40;;;;;;;4.82;67.84;100776.94;5063842;28;20029;-76
2023/05/01 01:07:57;;;;;;;0.43;0.43;;;;;;;4.84;68.44;100777.84;5064152;28;20021;-77
2023/05/01 01:10:34;;;;;;;0.40;0.40;;;;;;;4.83;69.15;100782.94;5064045;28;20036;-76
2023/05/01 01:13:19;;;;;;;0.50;0.50;;;;;;;4.78;70.18;100782.84;5064079;28;20079;-76
2023/05/01 01:15:52;;;;;;;0.50;0.50;;;;;;;4.81;70.25;100784.63;5063470;28;20033;-76
2023/05/01 01:18:24;;;;;;;0.50;0.50;;;;;;;4.81;70.24;100780.34;5062514;28;20251;-76
2023/05/01 01:20:52;;;;;;;0.50;0.50;;;;;;;4.83;70.69;100770.09;5063283;28;20024;-76
2023/05/01 01:23:36;;;;;;;0.50;0.50;;;;;;;4.83;71.22;100770.09;5063563;28;20031;-74
2023/05/01 01:26:10;;;;;;;0.50;0.50;;;;;;;4.81;71.47;100766.59;5063345;28;20381;-76
2023/05/01 01:28:50;;;;;;;0.50;0.50;;;;;;;4.80;72.06;100750.31;5045413;28;20025;-76
2023/05/01 01:31:32;;;;;;;0.57;0.57;;;;;;;4.85;72.21;100758.13;5045593;28;20029;-77
2023/05/01 01:34:13;;;;;;;0.47;0.47;;;;;;;4.87;72.34;100746.19;5063434;28;20023;-75
2023/05/01 01:36:48;;;;;;;0.50;0.50;;;;;;;4.88;72.49;100753.06;5063706;28;20013;-76
2023/05/01 01:39:23;;;;;;;0.50;0.50;;;;;;;4.91;73.09;100742.81;5063188;28;20047;-74
2023/05/01 01:41:51;;;;;;;0.50;0.50;;;;;;;4.91;73.35;100727.38;5063570;28;20028;-76
2023/05/01 01:44:37;;;;;;;0.50;0.50;;;;;;;4.93;73.56;100733.44;5062171;28;20028;-74
2023/05/01 01:47:06;;;;;;;0.65;0.65;;;;;;;4.93;73.67;100733.44;5045408;28;20044;-76
2023/05/01 01:49:36;;;;;;;0.50;0.50;;;;;;;4.96;73.81;100730.94;5063226;28;20025;-74
2023/05/01 01:52:04;;;;;;;0.50;0.50;;;;;;;4.93;74.21;100730.88;5064419;28;20031;-75
2023/05/01 01:54:36;;;;;;;0.50;0.50;;;;;;;4.99;74.09;100734.38;5067325;28;20066;-76
2023/05/01 01:57:04;;;;;;;0.50;0.50;;;;;;;5.01;74.71;100732.72;5049432;28;20021;-75
2023/05/01 01:59:33;;;;;;;0.50;0.50;;;;;;;5.02;74.81;100727.59;5067332;28;20017;-76
2023/05/01 02:02:01;;;;;;;0.50;0.50;;;;;;;4.99;74.90;100714.66;5066840;28;20113;-74
2023/05/01 02:04:27;;;;;;;0.50;0.50;;;;;;;5.04;74.67;100715.63;5065481;28;20108;-75
2023/05/01 02:06:57;;;;;;;0.43;0.43;;;;;;;5.02;75.25;100707.00;5066829;28;20318;-75
2023/05/01 02:09:23;;;;;;;0.45;0.45;;;;;;;5.08;75.71;100719.13;5065991;28;20021;-75
2023/05/01 02:11:50;;;;;;;0.40;0.40;;;;;;;5.08;75.84;100704.53;5066586;28;20025;-76
2023/05/01 02:14:17;;;;;;;0.40;0.40;;;;;;;5.11;76.29;100716.63;5067277;28;20027;-75
2023/05/01 02:16:43;;;;;;;0.40;0.40;;;;;;;5.10;76.75;100706.31;5066783;28;20024;-74
2023/05/01 02:19:10;;;;;;;0.40;0.40;;;;;;;5.12;77.06;100696.88;5067135;28;20021;-74
2023/05/01 02:21:36;;;;;;;0.43;0.43;;;;;;;5.08;77.02;100691.69;5049096;28;20025;-74
2023/05/01 02:24:05;;;;;;;0.50;0.50;;;;;;;5.16;77.18;100693.56;5067099;28;20025;-73
2023/05/01 02:26:33;;;;;;;0.50;0.50;;;;;;;5.14;77.73;100683.22;5066901;28;20028;-74
2023/05/01 02:28:58;;;;;;;0.45;0.45;;;;;;;5.17;77.65;100683.28;5066853;28;20512;-74
2023/05/01 02:31:24;;;;;;;0.50;0.50;;;;;;;5.11;78.13;100675.44;5066717;28;20028;-74
2023/05/01 02:33:49;;;;;;;0.40;0.40;;;;;;;5.18;77.85;100685.00;5066970;28;20021;-74
2023/05/01 02:36:15;;;;;;;0.45;0.45;;;;;;;5.18;78.26;100685.00;5066826;28;20017;-74
2023/05/01 02:38:40;;;;;;;0.40;0.40;;;;;;;5.14;78.98;100683.22;5066938;28;20519;-74
2023/05/01 02:41:07;;;;;;;0.50;0.50;;;;;;;5.15;79.07;100669.50;5066694;28;20036;-73
2023/05/01 02:43:34;;;;;;;0.50;0.50;;;;;;;5.18;78.92;100677.28;5066831;28;20473;-72
2023/05/01 02:46:03;;;;;;;0.60;0.60;;;;;;;5.19;79.37;100673.84;5064921;28;20025;-71
2023/05/01 02:48:30;;;;;;;0.50;0.50;;;;;;;5.14;80.12;100669.47;5066714;28;20023;-70
2023/05/01 02:50:57;;;;;;;0.47;0.47;;;;;;;5.14;80.18;100672.94;5066482;28;20024;-69
2023/05/01 02:53:22;;;;;;;0.50;0.50;;;;;;;5.12;80.57;100666.00;5066464;28;20025;-69
2023/05/01 02:55:49;;;;;;;0.60;0.60;;;;;;;5.09;81.20;100669.41;5066487;28;20020;-68
2023/05/01 02:58:16;;;;;;;0.50;0.50;;;;;;;5.09;81.36;100661.69;5066678;28;20045;-68
2023/05/01 03:00:42;;;;;;;0.40;0.40;;;;;;;5.00;81.53;100651.22;5066360;28;20512;-69
2023/05/01 03:03:07;;;;;;;0.40;0.40;;;;;;;5.02;81.72;100652.97;5065698;28;20041;-68
2023/05/01 03:05:32;;;;;;;0.40;0.40;;;;;;;5.04;81.65;100653.88;5066501;28;20080;-68
2023/05/01 03:07:58;;;;;;;0.50;0.50;;;;;;;4.96;81.69;100629.69;5066179;28;20457;-69
2023/05/01 03:10:23;;;;;;;0.50;0.50;;;;;;;4.96;82.44;100642.56;5066241;28;20056;-69
2023/05/01 03:12:49;;;;;;;3.33;3.13;;;;;;;4.93;82.70;100640.81;5064290;28;20088;-68
2023/05/01 03:15:15;;;;;;;0.50;0.50;;;;;;;4.94;82.74;100644.22;5064858;28;20017;-68
2023/05/01 03:17:40;;;;;;;0.50;0.50;;;;;;;4.92;83.23;100636.47;5064401;28;20017;-69
2023/05/01 03:20:08;;;;;;;0.50;0.50;;;;;;;4.90;83.22;100617.59;5065816;28;20051;-70
2023/05/01 03:22:33;;;;;;;0.50;0.50;;;;;;;4.94;83.09;100619.38;5065740;28;20021;-69
2023/05/01 03:24:59;;;;;;;0.43;0.43;;;;;;;5.02;83.20;100618.63;5065560;28;20404;-68
2023/05/01 03:27:25;;;;;;;0.50;0.50;;;;;;;5.06;82.70;100621.28;5064817;28;20025;-68
2023/05/01 03:29:51;;;;;;;0.40;0.40;;;;;;;5.01;82.96;100616.91;5046525;28;20059;-68
2023/05/01 03:32:16;;;;;;;0.50;0.50;;;;;;;5.04;83.25;100619.53;5063676;28;20025;-69
2023/05/01 03:34:43;;;;;;;0.50;0.50;;;;;;;5.07;83.13;100610.19;5064842;28;20032;-68
2023/05/01 03:37:09;;;;;;;0.50;0.50;;;;;;;5.09;83.20;100599.91;5064741;28;20024;-67
2023/05/01 03:39:34;;;;;;;0.50;0.50;;;;;;;5.06;83.13;100603.28;5062984;28;20420;-67
2023/05/01 03:41:59;;;;;;;0.63;0.63;;;;;;;5.04;83.50;100596.38;5064638;28;20021;-68
2023/05/01 03:44:25;;;;;;;0.50;0.50;;;;;;;5.07;83.86;100596.44;5064042;28;20044;-67
2023/05/01 03:46:51;;;;;;;0.40;0.40;;;;;;;5.10;83.88;100598.22;5061774;28;20060;-68
2023/05/01 03:49:16;;;;;;;0.50;0.50;;;;;;;5.06;84.00;100594.72;5063518;28;20025;-68
2023/05/01 03:51:41;;;;;;;0.50;0.50;;;;;;;5.08;84.11;100598.16;5063307;28;20025;-68
2023/05/01 03:54:07;;;;;;;0.50;0.50;;;;;;;5.07;84.28;100586.13;5064284;28;20071;-68
2023/05/01 03:56:34;;;;;;;0.40;0.40;;;;;;;5.12;84.20;100584.50;5064412;28;20020;-68
2023/05/01 03:59:00;;;;;;;0.60;0.60;;;;;;;5.08;84.19;100585.28;5063097;28;20567;-68
2023/05/01 04:01:25;;;;;;;0.50;0.50;;;;;;;5.06;84.60;100584.41;5046856;28;20021;-68
2023/05/01 04:03:51;;;;;;;0.40;0.40;;;;;;;4.99;84.84;100582.56;5059651;28;20056;-69
2023/05/01 04:06:17;;;;;;;0.40;0.40;;;;;;;5.01;84.97;100583.47;5044117;28;20021;-69
2023/05/01 04:08:43;;;;;;;0.40;0.40;;;;;;;5.00;85.03;100579.16;5044259;28;20032;-67
2023/05/01 04:11:08;;;;;;;0.50;0.50;;;;;;;4.98;85.27;100583.41;5043283;28;20393;-68
2023/05/01 04:13:34;;;;;;;0.38;0.38;;;;;;;4.99;85.21;100574.84;5044716;28;20068;-68
2023/05/01 04:15:59;;;;;;;0.40;0.40;;;;;;;4.94;85.25;100562.78;5043111;28;20045;-68
2023/05/01 04:18:25;;;;;;;0.50;0.50;;;;;;;4.96;85.34;100563.69;5044465;28;20022;-68
2023/05/01 04:20:51;;;;;;;0.50;0.50;;;;;;;5.02;85.59;100569.75;5043523;28;20464;-67
2023/05/01 04:23:16;;;;;;;0.60;0.60;;;;;;;5.00;85.80;100549.13;5044534;28;20036;-67
2023/05/01 04:25:42;;;;;;;0.47;0.47;;;;;;;5.07;85.83;100560.41;5044359;28;20282;-67
2023/05/01 04:28:11;;;;;;;0.47;0.47;;;;;;;5.12;86.19;100552.75;5043143;28;20037;-67
2023/05/01 04:30:36;;;;;;;0.40;0.40;;;;;;;5.18;86.28;100553.72;5044024;28;20021;-66
2023/05/01 04:33:02;;;;;;;0.50;0.50;;;;;;;5.21;86.40;100553.78;5044326;28;20040;-66
2023/05/01 04:35:28;;;;;;;0.40;0.40;;;;;;;5.21;86.40;100543.47;5044136;28;20017;-67
2023/05/01 04:37:53;;;;;;;0.40;0.40;;;;;;;5.27;86.50;100549.56;5042809;28;20056;-66
2023/05/01 04:40:19;;;;;;;0.40;0.40;;;;;;;5.25;86.50;100535.81;5044078;28;20022;-67
2023/05/01 04:42:44;;;;;;;0.50;0.50;;;;;;;5.28;86.82;100530.69;5044490;28;20036;-66
2023/05/01 04:45:10;;;;;;;0.50;0.50;;;;;;;5.33;86.84;100539.38;5044144;28;20032;-66
2023/05/01 04:47:36;;;;;;;0.40;0.40;;;;;;;5.40;87.16;100541.19;5044087;28;20032;-66
2023/05/01 04:50:01;;;;;;;0.50;0.50;;;;;;;5.44;87.09;100518.94;5042869;28;20025;-66
2023/05/01 04:52:27;;;;;;;0.40;0.40;;;;;;;5.45;87.13;100520.66;5044027;28;20430;-66
2023/05/01 04:54:52;;;;;;;0.50;0.50;;;;;;;5.46;87.11;100505.22;5043093;28;20048;-71
2023/05/01 04:57:17;;;;;;;0.50;0.50;;;;;;;5.50;87.56;100515.56;5042559;28;20014;-67
2023/05/01 04:59:43;;;;;;;0.40;0.40;;;;;;;5.52;87.56;100504.47;5043816;28;20109;-67
2023/05/01 05:02:08;;;;;;;0.40;0.40;;;;;;;5.55;87.86;100507.06;5047530;28;20104;-67
2023/05/01 05:04:34;;;;;;;0.40;0.40;;;;;;;5.57;87.73;100499.38;5044929;28;20025;-67
2023/05/01 05:06:59;;;;;;;0.40;0.40;;;;;;;5.59;87.81;100513.16;5045633;28;20040;-67
2023/05/01 05:09:25;;;;;;;0.40;0.40;;;;;;;5.63;88.02;100506.31;5064026;28;20123;-67
2023/05/01 05:11:50;;;;;;;0.40;0.40;;;;;;;5.68;87.93;100499.50;5063844;28;20090;-67
2023/05/01 05:14:16;;;;;;;0.40;0.40;;;;;;;5.68;88.14;100492.66;5063322;28;20036;-67
2023/05/01 05:16:41;;;;;;;0.40;0.40;;;;;;;5.75;88.24;100491.00;5062137;28;20025;-67
2023/05/01 05:19:07;;;;;;;0.40;0.40;;;;;;;5.80;88.34;100493.63;5063010;28;20557;-67
2023/05/01 05:21:32;;;;;;;0.50;0.50;;;;;;;5.82;88.24;100491.97;5062891;28;20017;-68
2023/05/01 05:23:57;;;;;;;0.43;0.43;;;;;;;5.85;88.56;100481.69;5062945;28;20089;-68
2023/05/01 05:26:23;;;;;;;0.50;0.50;;;;;;;5.91;88.45;100489.50;5061365;28;20029;-67
2023/05/01 05:28:49;;;;;;;0.40;0.40;;;;;;;5.93;88.51;100482.66;5062937;28;20031;-66
2023/05/01 05:31:15;;;;;;;0.40;0.40;;;;;;;5.94;88.60;100481.78;5062477;28;20032;-69
2023/05/01 05:33:40;;;;;;;0.40;0.40;;;;;;;5.97;88.61;100486.16;5062966;28;20025;-68
2023/05/01 05:36:06;;;;;;;0.50;0.50;;;;;;;5.99;88.72;100479.28;5062836;28;20013;-68
2023/05/01 05:38:31;;;;;;;0.40;0.40;;;;;;;6.03;88.94;100478.47;5045012;28;20043;-68
2023/05/01 05:40:58;;;;;;;0.40;0.40;;;;;;;6.10;88.76;100478.56;5061581;28;20090;-68
2023/05/01 05:43:23;;;;;;;0.40;0.40;;;;;;;6.14;89.07;100473.47;5062972;28;20055;-68
2023/05/01 05:45:49;;;;;;;0.40;0.40;;;;;;;6.15;88.94;100467.47;5063063;28;20025;-69
2023/05/01 05:48:14;;;;;;;0.40;0.40;;;;;;;6.23;89.01;100477.00;5062929;28;20059;-67
2023/05/01 05:50:39;;;;;;;0.40;0.40;;;;;;;6.22;89.08;100470.09;5061903;28;20031;-68
2023/05/01 05:53:05;;;;;;;0.40;0.40;;;;;;;6.23;89.37;100464.13;5063822;28;20043;-68
2023/05/01 05:55:30;;;;;;;0.40;0.40;;;;;;;6.28;89.51;100475.31;5063858;28;20036;-69
2023/05/01 05:57:56;;;;;;;0.40;0.40;;;;;;;6.31;89.62;100473.63;5063876;28;20108;-68
2023/05/01 06:00:22;;;;;;;0.40;0.40;;;;;;;6.35;89.73;100461.66;5063660;28;20044;-69
2023/05/01 06:02:48;;;;;;;0.40;0.40;;;;;;;6.32;89.83;100446.16;5063602;28;20059;-68
2023/05/01 06:05:13;;;;;;;0.43;0.43;;;;;;;6.49;90.03;100463.47;5063494;28;20096;-69
2023/05/01 06:07:39;;;;;;;0.40;0.40;;;;;;;6.53;89.98;100460.09;5062400;28;20021;-69
2023/05/01 06:10:05;;;;;;;0.40;0.40;;;;;;;6.63;90.28;100467.06;5063402;28;20025;-70
2023/05/01 06:12:31;;;;;;;0.40;0.40;;;;;;;6.69;90.20;100461.94;5063783;28;20009;-70
2023/05/01 06:14:57;;;;;;;0.40;0.40;;;;;;;6.69;90.33;100438.72;5063909;28;20033;-70
2023/05/01 06:17:23;;;;;;;0.40;0.40;;;;;;;6.78;90.32;100449.97;5063480;28;20031;-70
2023/05/01 06:19:51;;;;;;;0.40;0.40;;;;;;;6.85;90.60;100448.31;5063520;28;20591;-70
2023/05/01 06:22:17;;;;;;;0.40;0.40;;;;;;;6.91;90.94;100438.91;5063733;28;20501;-70
2023/05/01 06:24:42;;;;;;;0.40;0.40;;;;;;;6.99;90.98;100438.09;5063491;28;20025;-69
2023/05/01 06:27:07;;;;;;;0.40;0.40;;;;;;;7.10;91.25;100438.16;5063330;28;20031;-69
2023/05/01 06:29:33;;;;;;;0.40;0.40;;;;;;;7.17;91.23;100430.47;5063245;28;20048;-69
2023/05/01 06:31:58;;;;;;;0.40;0.40;;;;;;;7.21;91.21;100428.78;5063087;28;20055;-69
2023/05/01 06:34:24;;;;;;;0.50;0.50;;;;;;;7.31;91.46;100411.63;5061966;28;20036;-69
2023/05/01 06:36:49;;;;;;;0.40;0.40;;;;;;;7.48;91.66;100418.56;5063480;28;20017;-71
2023/05/01 06:39:15;;;;;;;0.40;0.40;;;;;;;7.66;92.11;100410.03;5062577;28;20075;-70
2023/05/01 06:41:40;;;;;;;0.40;0.40;;;;;;;7.87;92.43;100413.56;5066608;28;20027;-71
2023/05/01 06:44:05;;;;;;;0.40;0.40;;;;;;;8.03;92.66;100405.00;5066543;28;20043;-71
2023/05/01 06:46:31;;;;;;;0.40;0.40;;;;;;;8.17;92.67;100394.66;5048445;28;20104;-73
2023/05/01 06:48:56;;;;;;;0.40;0.40;;;;;;;8.47;93.40;100394.66;5048771;28;20040;-75
2023/05/01 06:51:22;;;;;;;0.50;0.50;;;;;;;8.76;93.58;100387.78;5066489;28;20033;-73
2023/05/01 06:53:47;;;;;;;0.40;0.40;;;;;;;8.91;93.10;100390.34;5066628;28;20020;-73
2023/05/01 06:56:12;;;;;;;0.40;0.40;;;;;;;8.90;92.73;100378.28;5066565;28;20064;-73
2023/05/01 06:58:38;;;;;;;0.40;0.40;;;;;;;8.95;92.37;100382.56;5048544;28;20116;-74
2023/05/01 07:01:03;;;;;;;0.40;0.40;;;;;;;8.96;92.43;100372.22;5066173;28;20115;-74
2023/05/01 07:03:29;;;;;;;0.35;0.35;;;;;;;9.19;92.98;100379.06;5066029;28;20056;-71
2023/05/01 07:05:54;;;;;;;0.40;0.40;;;;;;;9.36;92.95;100376.41;5066146;28;20037;-74
2023/05/01 07:08:20;;;;;;;0.40;0.40;;;;;;;9.45;92.49;100379.84;5066468;28;20100;-73
2023/05/01 07:10:46;;;;;;;3.13;1.58;;;;;;;9.50;92.32;100380.69;5066290;28;20029;-75
2023/05/01 07:13:11;;;;;;;0.40;0.40;;;;;;;9.51;91.92;100380.69;5048099;28;20218;-75
2023/05/01 07:15:37;;;;;;;0.40;0.40;;;;;;;9.55;91.90;100369.41;5066055;28;20025;-74
2023/05/01 07:18:04;;;;;;;0.40;0.40;;;;;;;9.61;91.96;100365.94;5065964;28;20029;-73
2023/05/01 07:20:31;;;;;;;0.40;0.40;;;;;;;9.66;91.59;100360.75;5066122;28;20021;-73
2023/05/01 07:22:56;;;;;;;0.63;0.63;;;;;;;9.61;91.22;100355.59;5066212;28;20025;-74
2023/05/01 07:25:22;;;;;;;0.40;0.40;;;;;;;9.60;91.19;100364.22;5066225;28;20036;-75
2023/05/01 07:27:47;;;;;;;0.40;0.40;;;;;;;9.61;91.01;100362.50;5064980;28;20028;-73
2023/05/01 07:30:12;;;;;;;0.40;0.40;;;;;;;9.61;90.90;100354.72;5064756;28;20389;-74
2023/05/01 07:32:38;;;;;;;0.40;0.40;;;;;;;9.61;91.03;100349.53;5065606;28;20417;-74
2023/05/01 07:35:04;;;;;;;0.40;0.40;;;;;;;9.59;90.69;100352.13;5064182;28;20039;-70
2023/05/01 07:37:29;;;;;;;0.40;0.40;;;;;;;9.54;90.57;100346.09;5065877;28;20087;-69
2023/05/01 07:39:56;;;;;;;0.40;0.40;;;;;;;9.50;90.49;100352.19;5064055;28;20037;-68
2023/05/01 07:42:22;;;;;;;0.30;0.30;;;;;;;9.37;89.94;100334.09;5065472;28;20032;-71
2023/05/01 07:44:50;;;;;;;0.38;0.38;;;;;;;9.27;90.10;100337.59;5065820;28;20017;-70
2023/05/01 07:47:15;;;;;;;0.40;0.40;;;;;;;9.14;89.18;100336.75;5065124;28;20028;-70
2023/05/01 07:49:41;;;;;;;0.40;0.40;;;;;;;9.02;89.21;100335.09;5064418;28;20025;-73
2023/05/01 07:52:07;;;;;;;0.30;0.30;;;;;;;8.89;88.61;100324.78;5065353;28;20025;-70
2023/05/01 07:54:33;;;;;;;0.30;0.30;;;;;;;8.97;88.53;100326.47;5065789;28;20032;-69
2023/05/01 07:57:00;;;;;;;0.40;0.40;;;;;;;8.88;87.94;100328.22;5065461;28;20021;-71
2023/05/01 07:59:26;;;;;;;0.40;0.40;;;;;;;8.85;87.38;100323.03;5047271;28;20025;-69
2023/05/01 08:01:51;;;;;;;0.40;0.40;;;;;;;8.85;87.86;100317.88;5064765;28;20101;-71
2023/05/01 08:04:17;;;;;;;0.40;0.40;;;;;;;8.98;88.02;100323.03;5065376;28;20028;-71
2023/05/01 08:06:43;;;;;;;0.30;0.30;;;;;;;9.09;86.39;100320.41;5047010;28;20120;-71
2023/05/01 08:09:08;;;;;;;0.50;0.50;;;;;;;9.16;85.03;100316.91;5063907;28;20021;-71
2023/05/01 08:11:34;;;;;;;0.40;0.40;;;;;;;9.22;84.29;100321.22;5064981;28;20029;-69
2023/05/01 08:13:59;;;;;;;3.67;3.47;;;;;;;9.27;84.35;100301.31;5065110;28;20025;-71
2023/05/01 08:16:25;;;;;;;0.40;0.40;;;;;;;9.40;84.58;100305.59;5063221;28;20084;-70
2023/05/01 08:18:51;;;;;;;0.40;0.40;;;;;;;9.49;82.87;100304.66;5064682;28;20736;-75
2023/05/01 08:21:16;;;;;;;0.40;0.40;;;;;;;9.49;81.93;100301.22;5063375;28;20025;-75
2023/05/01 08:23:42;;;;;;;0.43;0.43;;;;;;;9.47;80.15;100308.13;5063927;28;20024;-76
2023/05/01 08:26:07;;;;;;;0.47;0.47;;;;;;;9.50;79.70;100293.44;5046133;28;20021;-75
2023/05/01 08:28:36;;;;;;;0.40;0.40;;;;;;;9.58;79.54;100296.00;5046823;28;20044;-76
2023/05/01 08:31:02;;;;;;;0.75;0.75;;;;;;;9.54;78.15;100309.81;5064468;28;20468;-75
2023/05/01 08:33:28;;;;;;;0.40;0.40;;;;;;;9.52;78.44;100285.66;5063024;28;20017;-75
2023/05/01 08:35:53;;;;;;;0.40;0.40;;;;;;;9.54;78.15;100294.25;5061618;28;20029;-76
2023/05/01 08:38:19;;;;;;;0.40;0.40;;;;;;;9.44;78.06;100280.50;5064299;28;20492;-69
2023/05/01 08:40:52;;;;;;;1.42;1.42;;;;;;;9.49;78.82;100288.28;5064402;28;20430;-70
2023/05/01 08:43:18;;;;;;;0.40;0.40;;;;;;;9.52;77.72;100289.09;5063045;28;20025;-69
2023/05/01 08:45:46;;;;;;;0.40;0.40;;;;;;;9.46;77.21;100283.06;5046377;28;20036;-72
2023/05/01 08:48:15;;;;;;;0.98;0.98;;;;;;;9.36;76.47;100285.72;5063962;28;20032;-70
2023/05/01 08:50:45;;;;;;;1.40;1.40;;;;;;;9.33;76.72;100275.38;5064474;28;20024;-70
2023/05/01 08:53:11;;;;;;;0.40;0.40;;;;;;;9.40;77.09;100292.63;5064706;28;20036;-69
2023/05/01 08:55:37;;;;;;;1.92;1.73;;;;;;;9.42;77.05;100271.88;5046553;28;20021;-71
2023/05/01 08:58:04;;;;;;;0.47;0.47;;;;;;;9.49;76.09;100272.72;5064293;28;20078;-70
2023/05/01 09:00:33;;;;;;;1.20;1.00;;;;;;;9.50;76.15;100275.31;5063597;28;20029;-70
2023/05/01 09:03:01;;;;;;;0.40;0.40;;;;;;;9.44;75.80;100269.28;5045732;28;20226;-72
2023/05/01 09:05:26;;;;;;;0.40;0.40;;;;;;;9.51;75.64;100268.38;5064208;28;20017;-70
2023/05/01 09:07:52;;;;;;;0.40;0.40;;;;;;;9.52;76.11;100258.00;5063950;28;20021;-70
2023/05/01 09:10:17;;;;;;;0.40;0.40;;;;;;;9.63;75.86;100260.50;5064074;28;20029;-71
2023/05/01 09:12:45;;;;;;;0.50;0.50;;;;;;;9.58;75.56;100262.28;5064144;28;20055;-71
2023/05/01 09:15:11;;;;;;;0.40;0.40;;;;;;;9.58;75.79;100266.59;5064154;28;20107;-73
2023/05/01 09:17:37;;;;;;;0.40;0.40;;;;;;;9.59;75.39;100257.94;5062346;28;20036;-69
2023/05/01 09:20:05;;;;;;;0.50;0.50;;;;;;;9.54;75.53;100255.38;5062066;28;20029;-70
2023/05/01 09:22:32;;;;;;;0.40;0.40;;;;;;;9.57;74.85;100245.00;5063144;28;20080;-70
2023/05/01 09:24:58;;;;;;;0.50;0.50;;;;;;;9.52;74.01;100251.97;5045645;28;20029;-72
2023/05/01 09:27:25;;;;;;;0.40;0.40;;;;;;;9.51;74.02;100269.25;5063787;28;20495;-71
2023/05/01 09:29:51;;;;;;;0.40;0.40;;;;;;;9.44;72.86;100245.97;5045683;28;20029;-71
2023/05/01 09:32:23;;;;;;;0.40;0.40;;;;;;;9.44;72.57;100261.50;5063365;28;20075;-73
2023/05/01 09:34:51;;;;;;;1.55;1.45;;;;;;;9.42;72.56;100246.81;5045601;28;20021;-71
2023/05/01 09:37:31;;;;;;;0.40;0.40;;;;;;;9.36;72.58;100252.03;5063332;28;20071;-70
2023/05/01 09:40:01;;;;;;;0.40;0.40;;;;;;;9.27;72.40;100242.59;5063664;28;20093;-71
2023/05/01 09:42:26;;;;;;;0.40;0.40;;;;;;;9.27;72.51;100247.78;5063819;28;20021;-72
2023/05/01 09:44:53;;;;;;;0.40;0.40;;;;;;;9.24;72.76;100241.75;5063523;28;20483;-70
2023/05/01 09:47:22;;;;;;;0.40;0.40;;;;;;;9.28;72.83;100238.28;5063320;28;20028;-70
2023/05/01 09:49:48;;;;;;;0.40;0.40;;;;;;;9.28;72.57;100225.34;5062172;28;20025;-71
2023/05/01 09:52:14;;;;;;;0.45;0.45;;;;;;;9.42;71.96;100252.00;5045205;28;20028;-72
2023/05/01 09:54:40;;;;;;;0.40;0.40;;;;;;;9.35;72.02;100228.72;5063728;28;20051;-72
2023/05/01 09:57:05;;;;;;;0.40;0.40;;;;;;;9.40;72.07;100234.75;5045519;28;20021;-69
2023/05/01 09:59:33;;;;;;;0.98;0.98;;;;;;;9.43;72.04;100242.50;5045744;28;20064;-70
2023/05/01 10:02:00;;;;;;;0.40;0.40;;;;;;;9.49;72.00;100226.06;5061487;28;20102;-70
2023/05/01 10:04:30;;;;;;;0.40;0.40;;;;;;;9.53;72.03;100232.94;5063498;28;20025;-70
2023/05/01 10:06:55;;;;;;;0.40;0.40;;;;;;;9.56;72.17;100227.75;5045240;28;20312;-70
2023/05/01 10:09:28;;;;;;;0.40;0.40;;;;;;;9.61;71.62;100225.13;5063440;28;20029;-72
2023/05/01 10:11:56;;;;;;;0.98;0.80;;;;;;;9.60;70.75;100219.06;5045291;28;20029;-71
2023/05/01 10:14:23;;;;;;;0.40;0.40;;;;;;;9.60;71.04;100207.84;5048491;28;20029;-70
2023/05/01 10:16:51;;;;;;;0.40;0.40;;;;;;;9.65;70.80;100196.56;5048788;28;20089;-70
2023/05/01 10:19:16;;;;;;;1.80;0.68;;;;;;;9.71;70.96;100205.16;5067172;28;20500;-70
2023/05/01 10:21:42;;;;;;;0.40;0.40;;;;;;;9.78;70.56;100188.69;5049144;28;20029;-70
2023/05/01 10:24:09;;;;;;;2.90;2.38;;;;;;;9.76;70.42;100193.88;5065770;28;20539;-70
2023/05/01 10:26:35;;;;;;;0.40;0.40;;;;;;;9.73;70.23;100193.91;5066804;28;20021;-70
2023/05/01 10:29:02;;;;;;;1.55;1.40;;;;;;;9.73;70.16;100191.31;5066845;28;20055;-72
2023/05/01 10:31:28;;;;;;;0.40;0.40;;;;;;;9.70;70.11;100193.06;5066736;28;21125;-73
2023/05/01 10:33:57;;;;;;;0.70;0.70;;;;;;;9.72;70.18;100175.78;5066953;28;20080;-72
2023/05/01 10:36:32;;;;;;;0.40;0.40;;;;;;;9.84;70.72;100186.03;5067022;28;20021;-71
2023/05/01 10:38:57;;;;;;;0.40;0.40;;;;;;;10.03;70.30;100173.75;5066928;28;20021;-72
2023/05/01 10:41:57;;;;;;;0.40;0.40;;;;;;;10.21;69.25;100186.56;5065020;28;20032;-70
2023/05/01 10:44:24;;;;;;;0.40;0.40;;;;;;;10.23;68.94;100162.31;5048855;28;20554;-71
2023/05/01 10:46:49;;;;;;;0.45;0.45;;;;;;;10.50;68.87;100180.22;5064657;28;20029;-70
2023/05/01 10:49:16;;;;;;;0.40;0.40;;;;;;;10.65;68.55;100164.44;5066095;28;20078;-71
2023/05/01 10:52:03;;;;;;;0.40;0.40;;;;;;;10.96;67.26;100172.72;5065311;28;20032;-77
2023/05/01 10:54:29;;;;;;;0.40;0.40;;;;;;;11.01;66.38;100160.50;5048403;28;20021;-78
2023/05/01 10:57:05;;;;;;;0.40;0.40;;;;;;;11.21;65.80;100146.38;5048329;28;20028;-78
2023/05/01 11:00:03;;;;;;;0.32;0.32;;;;;;;11.49;64.55;100153.72;5065394;28;20032;-78
2023/05/01 11:02:29;;;;;;;0.38;0.38;;;;;;;11.62;64.21;100152.66;5032525;28;20071;-77
2023/05/01 11:05:02;;;;;;;1.33;1.23;;;;;;;11.60;63.23;100145.75;5066496;28;20025;-78
2023/05/01 11:07:27;;;;;;;0.30;0.30;;;;;;;11.44;62.72;100138.22;5066474;28;20033;-79
2023/05/01 11:09:57;;;;;;;0.40;0.40;;;;;;;11.55;63.15;100135.44;5066233;28;20107;-77
2023/05/01 11:12:52;;;;;;;47.90;2.85;;;;;;;11.62;62.25;100123.19;5066126;28;20492;-77
2023/05/01 11:15:29;;;;;;;0.40;0.40;;;;;;;11.65;62.25;100121.41;5039555;28;20081;-78
2023/05/01 11:17:55;;;;;;;0.30;0.30;;;;;;;11.81;61.84;100139.34;5048331;28;20029;-78
2023/05/01 11:20:24;;;;;;;0.40;0.40;;;;;;;11.92;61.30;100135.69;5066124;28;20021;-76
2023/05/01 11:22:51;;;;;;;0.50;0.50;;;;;;;11.95;61.73;100120.88;5048236;28;20021;-77
2023/05/01 11:25:22;;;;;;;0.40;0.40;;;;;;;12.06;60.76;100123.25;5065830;28;20031;-79
2023/05/01 11:27:49;;;;;;;0.63;0.63;;;;;;;12.08;61.35;100113.72;5066444;28;20020;-78
2023/05/01 11:30:15;;;;;;;1.40;1.35;;;;;;;12.06;60.64;100099.84;5066002;28;20048;-77
2023/05/01 11:32:45;;;;;;;0.52;0.52;;;;;;;12.05;60.56;100125.88;5047916;28;20032;-75